createdAt,value
2022-11-16T00:01:18.511Z,10.58
2022-11-16T00:03:45.171Z,10.87
2022-11-16T00:06:12.280Z,10.87
2022-11-16T00:08:40.739Z,10.73
2022-11-16T00:11:14.993Z,10.77
2022-11-16T00:13:42.267Z,10.66
2022-11-16T00:16:13.382Z,10.70
2022-11-16T00:18:40.009Z,10.83
2022-11-16T00:21:06.763Z,11.04
2022-11-16T00:23:35.639Z,10.55
2022-11-16T00:26:06.247Z,10.72
2022-11-16T00:28:33.217Z,10.98
2022-11-16T00:31:00.872Z,10.61
2022-11-16T00:33:27.623Z,10.73
2022-11-16T00:35:54.240Z,10.99
2022-11-16T00:38:20.890Z,11.09
2022-11-16T00:40:47.696Z,11.33
2022-11-16T00:43:14.307Z,11.35
2022-11-16T00:45:41.912Z,11.04
2022-11-16T00:48:08.550Z,11.34
2022-11-16T00:50:35.211Z,11.47
2022-11-16T00:53:01.825Z,11.36
2022-11-16T00:55:28.447Z,11.53
2022-11-16T00:57:55.066Z,11.35
2022-11-16T01:00:21.700Z,11.26
2022-11-16T01:02:48.314Z,10.87
2022-11-16T01:05:14.937Z,11.44
2022-11-16T01:07:41.574Z,11.36
2022-11-16T01:10:13.858Z,11.51
2022-11-16T01:12:40.476Z,11.11
2022-11-16T01:15:07.998Z,11.53
2022-11-16T01:17:38.360Z,11.34
2022-11-16T01:20:06.237Z,11.57
2022-11-16T01:22:35.230Z,11.34
2022-11-16T01:25:01.855Z,11.51
2022-11-16T01:27:28.479Z,11.25
2022-11-16T01:29:55.094Z,11.40
2022-11-16T01:32:21.723Z,11.01
2022-11-16T01:34:48.335Z,11.38
2022-11-16T01:37:15.302Z,11.52
2022-11-16T01:39:41.918Z,11.38
2022-11-16T01:42:15.295Z,11.50
2022-11-16T01:44:41.763Z,11.59
2022-11-16T01:47:10.231Z,11.64
2022-11-16T01:49:38.313Z,11.25
2022-11-16T01:52:07.077Z,11.24
2022-11-16T01:54:36.395Z,11.57
2022-11-16T01:57:04.370Z,11.53
2022-11-16T01:59:30.981Z,11.77
2022-11-16T02:01:59.264Z,11.68
2022-11-16T02:04:25.879Z,11.83
2022-11-16T02:07:07.613Z,11.37
2022-11-16T02:09:48.495Z,11.41
2022-11-16T02:13:05.792Z,11.30
2022-11-16T02:15:49.297Z,11.36
2022-11-16T02:18:37.790Z,11.68
2022-11-16T02:21:34.982Z,11.58
2022-11-16T02:24:32.106Z,11.68
2022-11-16T02:27:10.769Z,11.79
2022-11-16T02:29:50.100Z,11.67
2022-11-16T02:32:41.164Z,11.83
2022-11-16T02:35:09.767Z,11.61
2022-11-16T02:37:38.684Z,11.72
2022-11-16T02:40:07.994Z,11.76
2022-11-16T02:42:37.940Z,11.90
2022-11-16T02:45:06.268Z,11.83
2022-11-16T02:47:33.194Z,11.80
2022-11-16T02:50:03.586Z,11.55
2022-11-16T02:52:30.207Z,11.79
2022-11-16T02:54:56.881Z,11.85
2022-11-16T02:57:32.942Z,11.54
2022-11-16T02:59:59.573Z,11.65
2022-11-16T03:02:49.350Z,11.58
2022-11-16T03:05:23.179Z,11.60
2022-11-16T03:07:53.179Z,11.30
2022-11-16T03:10:19.803Z,11.30
2022-11-16T03:12:46.421Z,11.55
2022-11-16T03:15:13.031Z,11.50
2022-11-16T03:17:44.505Z,11.53
2022-11-16T03:20:12.286Z,11.44
2022-11-16T03:22:44.065Z,11.30
2022-11-16T03:25:15.887Z,11.45
2022-11-16T03:28:02.480Z,11.20
2022-11-16T03:30:30.335Z,11.40
2022-11-16T03:33:09.056Z,11.47
2022-11-16T03:35:55.307Z,11.25
2022-11-16T03:38:22.205Z,11.27
2022-11-16T03:40:50.239Z,11.27
2022-11-16T03:43:17.513Z,11.13
2022-11-16T03:45:44.125Z,11.39
2022-11-16T03:48:11.433Z,11.28
2022-11-16T03:50:38.830Z,11.25
2022-11-16T03:53:05.430Z,11.16
2022-11-16T03:55:32.122Z,11.17
2022-11-16T03:57:58.746Z,11.09
2022-11-16T04:00:25.378Z,11.18
2022-11-16T04:02:51.990Z,11.03
2022-11-16T04:05:18.668Z,11.20
2022-11-16T04:07:45.299Z,10.96
2022-11-16T04:10:11.971Z,10.94
2022-11-16T04:12:40.335Z,10.91
2022-11-16T04:15:09.733Z,10.92
2022-11-16T04:17:36.344Z,10.96
2022-11-16T04:20:03.823Z,10.82
2022-11-16T04:22:36.900Z,10.97
2022-11-16T04:25:18.840Z,10.97
2022-11-16T04:27:45.449Z,10.94
2022-11-16T04:30:12.362Z,10.98
2022-11-16T04:32:38.976Z,11.02
2022-11-16T04:35:05.675Z,10.88
2022-11-16T04:37:32.291Z,10.92
2022-11-16T04:39:58.894Z,10.99
2022-11-16T04:42:25.497Z,10.85
2022-11-16T04:44:52.108Z,10.79
2022-11-16T04:47:18.749Z,10.87
2022-11-16T04:49:45.361Z,10.85
2022-11-16T04:52:11.972Z,10.87
2022-11-16T04:54:38.592Z,10.93
2022-11-16T04:57:05.192Z,10.80
2022-11-16T04:59:31.802Z,10.69
2022-11-16T05:01:58.413Z,10.66
2022-11-16T05:04:25.017Z,10.59
2022-11-16T05:06:51.671Z,10.66
2022-11-16T05:09:18.323Z,10.75
2022-11-16T05:11:44.946Z,10.78
2022-11-16T05:14:11.635Z,10.90
2022-11-16T05:16:38.239Z,10.79
2022-11-16T05:19:04.853Z,10.77
2022-11-16T05:21:31.451Z,10.86
2022-11-16T05:23:58.042Z,10.79
2022-11-16T05:26:24.654Z,10.70
2022-11-16T05:28:51.264Z,10.59
2022-11-16T05:31:17.877Z,10.68
2022-11-16T05:33:44.491Z,10.73
2022-11-16T05:36:11.098Z,10.78
2022-11-16T05:38:37.699Z,10.63
2022-11-16T05:41:04.308Z,10.79
2022-11-16T05:43:30.904Z,10.73
2022-11-16T05:45:57.519Z,10.88
2022-11-16T05:48:24.133Z,10.90
2022-11-16T05:50:50.739Z,10.91
2022-11-16T05:53:17.347Z,10.91
2022-11-16T05:55:44.021Z,10.81
2022-11-16T05:58:10.658Z,10.82
2022-11-16T06:00:37.281Z,10.60
2022-11-16T06:03:03.978Z,10.57
2022-11-16T06:05:30.634Z,10.37
2022-11-16T06:10:41.347Z,10.47
2022-11-16T06:13:07.963Z,10.49
2022-11-16T06:15:37.486Z,10.33
2022-11-16T06:18:04.249Z,10.31
2022-11-16T06:20:30.856Z,10.25
2022-11-16T06:22:57.473Z,10.20
2022-11-16T06:25:24.082Z,9.99
2022-11-16T06:27:50.713Z,9.86
2022-11-16T06:30:17.433Z,9.91
2022-11-16T06:32:44.037Z,9.84
2022-11-16T06:35:10.633Z,9.99
2022-11-16T06:37:37.237Z,9.93
2022-11-16T06:40:04.077Z,10.01
2022-11-16T06:42:30.688Z,10.04
2022-11-16T06:44:57.314Z,9.90
2022-11-16T06:47:23.931Z,9.91
2022-11-16T06:49:50.569Z,9.85
2022-11-16T06:52:17.234Z,9.78
2022-11-16T06:54:43.962Z,9.99
2022-11-16T06:57:10.565Z,9.89
2022-11-16T06:59:37.179Z,10.05
2022-11-16T07:02:03.839Z,10.20
2022-11-16T07:04:32.109Z,10.46
2022-11-16T07:06:58.795Z,10.75
2022-11-16T07:09:25.440Z,10.76
2022-11-16T07:11:52.046Z,11.87
2022-11-16T07:14:18.653Z,12.96
2022-11-16T07:16:45.251Z,13.62
2022-11-16T07:19:11.859Z,15.20
2022-11-16T07:21:38.468Z,15.35
2022-11-16T07:24:05.141Z,15.70
2022-11-16T07:26:35.937Z,15.16
2022-11-16T07:29:02.550Z,14.00
2022-11-16T07:31:29.161Z,12.87
2022-11-16T07:33:55.822Z,11.59
2022-11-16T07:36:22.432Z,11.66
2022-11-16T07:38:49.039Z,11.45
2022-11-16T07:41:17.340Z,11.81
2022-11-16T07:43:48.477Z,11.55
2022-11-16T07:46:46.146Z,11.39
2022-11-16T07:49:11.265Z,11.05
2022-11-16T07:51:38.279Z,11.10
2022-11-16T07:54:04.884Z,11.01
2022-11-16T07:56:31.497Z,11.16
2022-11-16T07:58:58.127Z,11.28
2022-11-16T08:01:24.806Z,11.13
2022-11-16T08:03:53.159Z,11.46
2022-11-16T08:06:24.850Z,11.17
2022-11-16T08:08:56.800Z,11.61
2022-11-16T08:11:25.101Z,11.34
2022-11-16T08:13:51.726Z,11.07
2022-11-16T08:16:19.812Z,11.39
2022-11-16T08:18:46.440Z,11.51
2022-11-16T08:21:14.157Z,11.82
2022-11-16T08:23:40.809Z,11.82
2022-11-16T08:26:11.936Z,11.67
2022-11-16T08:28:38.567Z,11.48
2022-11-16T08:31:11.090Z,11.61
2022-11-16T08:33:37.708Z,11.69
2022-11-16T08:36:13.607Z,11.79
2022-11-16T08:38:40.753Z,11.66
2022-11-16T08:43:51.576Z,11.73
2022-11-16T08:46:18.191Z,11.96
2022-11-16T08:48:44.851Z,11.65
2022-11-16T08:51:17.819Z,11.88
2022-11-16T08:53:44.940Z,11.95
2022-11-16T08:56:11.751Z,13.63
2022-11-16T08:58:38.675Z,15.55
2022-11-16T09:01:15.641Z,16.64
2022-11-16T09:03:42.309Z,16.29
2022-11-16T09:06:09.382Z,16.81
2022-11-16T09:08:37.032Z,17.25
2022-11-16T09:11:05.110Z,18.44
2022-11-16T09:13:31.713Z,15.42
2022-11-16T09:15:59.179Z,16.84
2022-11-16T09:18:26.037Z,17.87
2022-11-16T09:20:52.651Z,17.73
2022-11-16T09:23:23.921Z,17.77
2022-11-16T09:25:51.823Z,18.38
2022-11-16T09:28:18.545Z,17.66
2022-11-16T09:30:45.607Z,17.47
2022-11-16T09:33:12.290Z,17.09
2022-11-16T09:35:38.964Z,17.12
2022-11-16T09:38:05.712Z,17.59
2022-11-16T09:40:37.331Z,18.59
2022-11-16T09:43:09.904Z,17.22
2022-11-16T09:45:36.382Z,17.95
2022-11-16T09:48:04.043Z,19.32
2022-11-16T09:50:56.777Z,20.56
2022-11-16T09:53:26.038Z,20.33
2022-11-16T09:55:58.646Z,18.19
2022-11-16T09:58:46.009Z,19.97
2022-11-16T10:01:31.294Z,17.67
2022-11-16T10:04:12.952Z,18.55
2022-11-16T10:07:01.452Z,18.98
2022-11-16T10:09:28.087Z,20.96
2022-11-16T10:12:03.646Z,20.73
2022-11-16T10:14:48.838Z,21.26
2022-11-16T10:17:33.318Z,19.70
2022-11-16T10:20:18.192Z,20.25
2022-11-16T10:23:15.879Z,18.40
2022-11-16T10:25:43.469Z,17.06
2022-11-16T10:28:21.485Z,18.65
2022-11-16T10:31:08.196Z,20.08
2022-11-16T10:33:35.066Z,19.33
2022-11-16T10:36:06.653Z,17.69
2022-11-16T10:38:34.348Z,17.93
2022-11-16T10:41:40.668Z,17.77
2022-11-16T10:44:14.935Z,19.61
2022-11-16T10:46:42.699Z,19.56
2022-11-16T10:49:21.208Z,20.47
2022-11-16T10:51:51.563Z,21.23
2022-11-16T10:54:18.210Z,20.74
2022-11-16T10:56:46.211Z,21.15
2022-11-16T10:59:13.642Z,20.56
2022-11-16T11:01:46.934Z,18.50
2022-11-16T11:04:38.320Z,20.14
2022-11-16T11:07:33.231Z,19.59
2022-11-16T11:09:59.893Z,17.94
2022-11-16T11:12:26.819Z,17.11
2022-11-16T11:14:58.346Z,16.24
2022-11-16T11:17:25.084Z,16.23
2022-11-16T11:20:08.277Z,17.01
2022-11-16T11:23:00.344Z,16.23
2022-11-16T11:25:48.603Z,15.83
2022-11-16T11:28:25.918Z,16.58
2022-11-16T11:31:15.358Z,16.81
2022-11-16T11:33:52.839Z,18.75
2022-11-16T11:36:24.044Z,19.03
2022-11-16T11:39:03.311Z,21.90
2022-11-16T11:41:43.091Z,22.34
2022-11-16T11:44:12.590Z,23.91
2022-11-16T11:47:23.637Z,21.87
2022-11-16T11:49:33.851Z,24.01
2022-11-16T11:52:04.628Z,25.20
2022-11-16T11:54:32.834Z,25.42
2022-11-16T11:57:00.874Z,22.63
2022-11-16T11:59:27.530Z,25.83
2022-11-16T12:02:09.790Z,24.13
2022-11-16T12:04:42.598Z,24.23
2022-11-16T12:07:32.613Z,23.29
2022-11-16T12:10:05.683Z,25.66
2022-11-16T12:12:32.206Z,22.34
2022-11-16T12:15:04.660Z,24.74
2022-11-16T12:17:52.351Z,23.01
2022-11-16T12:20:25.989Z,25.58
2022-11-16T12:23:25.890Z,23.06
2022-11-16T12:25:52.382Z,24.25
2022-11-16T12:28:56.074Z,23.92
2022-11-16T12:31:53.855Z,24.58
2022-11-16T12:35:00.597Z,25.19
2022-11-16T12:37:58.818Z,28.14
2022-11-16T12:40:55.858Z,27.83
2022-11-16T12:43:31.692Z,25.54
2022-11-16T12:45:58.363Z,25.02
2022-11-16T12:49:13.015Z,23.30
2022-11-16T12:51:55.423Z,23.61
2022-11-16T12:55:25.537Z,19.33
2022-11-16T12:58:18.934Z,20.96
2022-11-16T13:00:50.574Z,18.36
2022-11-16T13:03:38.791Z,17.54
2022-11-16T13:06:11.428Z,16.74
2022-11-16T13:08:45.796Z,20.21
2022-11-16T13:11:19.926Z,19.35
2022-11-16T13:13:52.643Z,22.62
2022-11-16T13:16:19.795Z,23.88
2022-11-16T13:18:47.923Z,18.62
2022-11-16T13:21:38.580Z,22.83
2022-11-16T13:24:08.257Z,23.54
2022-11-16T13:26:49.529Z,24.43
2022-11-16T13:29:34.435Z,26.11
2022-11-16T13:32:11.003Z,25.24
2022-11-16T13:34:38.262Z,24.55
2022-11-16T13:37:39.414Z,23.04
2022-11-16T13:40:05.995Z,22.63
2022-11-16T13:42:34.214Z,24.03
2022-11-16T13:45:19.633Z,23.27
2022-11-16T13:47:56.890Z,20.86
2022-11-16T13:50:41.364Z,20.46
2022-11-16T13:56:00.661Z,17.34
2022-11-16T13:58:27.669Z,16.99
2022-11-16T14:01:14.577Z,17.50
2022-11-16T14:03:45.070Z,21.06
2022-11-16T14:06:23.902Z,23.56
2022-11-16T14:08:54.593Z,22.41
2022-11-16T14:11:37.379Z,23.36
2022-11-16T14:14:10.019Z,23.86
2022-11-16T14:16:49.372Z,22.09
2022-11-16T14:19:40.993Z,21.36
2022-11-16T14:22:08.199Z,17.84
2022-11-16T14:25:13.704Z,17.14
2022-11-16T14:27:48.935Z,15.74
2022-11-16T14:30:22.800Z,15.11
2022-11-16T14:32:50.390Z,14.91
2022-11-16T14:35:27.788Z,14.70
2022-11-16T14:37:59.163Z,15.04
2022-11-16T14:40:25.783Z,15.15
2022-11-16T14:43:15.468Z,14.88
2022-11-16T14:45:38.858Z,15.16
2022-11-16T14:48:16.917Z,14.97
2022-11-16T14:50:44.049Z,14.71
2022-11-16T14:53:13.348Z,14.72
2022-11-16T14:55:43.812Z,14.54
2022-11-16T14:58:20.707Z,14.66
2022-11-16T15:00:57.555Z,15.13
2022-11-16T15:03:25.111Z,14.76
2022-11-16T15:05:51.767Z,14.47
2022-11-16T15:08:31.243Z,13.95
2022-11-16T15:10:57.863Z,14.12
2022-11-16T15:13:24.478Z,14.16
2022-11-16T15:16:10.763Z,14.22
2022-11-16T15:18:37.371Z,14.34
2022-11-16T15:21:03.992Z,14.11
2022-11-16T15:23:31.018Z,14.25
2022-11-16T15:25:57.768Z,14.08
2022-11-16T15:28:28.427Z,13.77
2022-11-16T15:30:57.136Z,13.83
2022-11-16T15:33:44.264Z,13.64
2022-11-16T15:36:32.108Z,13.35
2022-11-16T15:38:58.765Z,13.44
2022-11-16T15:41:25.504Z,13.36
2022-11-16T15:44:12.470Z,13.59
2022-11-16T15:46:39.958Z,13.30
2022-11-16T15:49:22.124Z,13.22
2022-11-16T15:51:48.745Z,12.84
2022-11-16T15:54:28.223Z,12.88
2022-11-16T15:56:56.357Z,13.20
2022-11-16T15:59:33.660Z,12.84
2022-11-16T16:02:00.305Z,12.54
2022-11-16T16:04:26.997Z,12.71
2022-11-16T16:06:57.514Z,12.58
2022-11-16T16:09:26.758Z,12.92
2022-11-16T16:11:54.672Z,12.90
2022-11-16T16:14:23.417Z,12.92
2022-11-16T16:16:51.102Z,13.03
2022-11-16T16:19:33.344Z,12.90
2022-11-16T16:22:00.063Z,12.86
2022-11-16T16:24:45.119Z,12.76
2022-11-16T16:27:15.593Z,12.92
2022-11-16T16:29:44.986Z,12.87
2022-11-16T16:32:26.364Z,12.31
2022-11-16T16:34:53.897Z,12.40
2022-11-16T16:37:20.832Z,12.30
2022-11-16T16:39:47.604Z,12.34
2022-11-16T16:42:15.773Z,11.91
2022-11-16T16:44:42.932Z,12.15
2022-11-16T16:47:09.596Z,11.83
2022-11-16T16:49:36.407Z,11.76
2022-11-16T16:52:03.587Z,11.82
2022-11-16T16:54:30.383Z,11.41
2022-11-16T16:56:57.227Z,11.38
2022-11-16T16:59:24.483Z,11.59
2022-11-16T17:01:51.798Z,10.84
2022-11-16T17:04:18.973Z,10.85
2022-11-16T17:06:46.713Z,11.19
2022-11-16T17:09:14.241Z,11.35
2022-11-16T17:11:41.575Z,11.21
2022-11-16T17:14:08.651Z,11.01
2022-11-16T17:16:36.073Z,11.42
2022-11-16T17:19:03.702Z,11.17
2022-11-16T17:21:31.021Z,11.36
2022-11-16T17:23:58.200Z,11.06
2022-11-16T17:26:25.401Z,10.95
2022-11-16T17:28:58.679Z,11.11
2022-11-16T17:31:26.055Z,11.36
2022-11-16T17:33:53.273Z,11.02
2022-11-16T17:36:20.715Z,11.44
2022-11-16T17:38:48.189Z,11.21
2022-11-16T17:41:17.463Z,11.18
2022-11-16T17:43:46.717Z,11.05
2022-11-16T17:46:17.971Z,11.09
2022-11-16T17:48:46.162Z,10.85
2022-11-16T17:51:14.455Z,11.03
2022-11-16T17:53:41.657Z,10.72
2022-11-16T17:56:10.217Z,11.32
2022-11-16T17:58:37.708Z,11.02
2022-11-16T18:01:04.948Z,11.07
2022-11-16T18:03:32.207Z,11.48
2022-11-16T18:06:09.977Z,11.43
2022-11-16T18:08:36.791Z,11.21
2022-11-16T18:11:07.525Z,11.44
2022-11-16T18:13:34.478Z,11.43
2022-11-16T18:16:18.602Z,11.31
2022-11-16T18:18:45.940Z,11.18
2022-11-16T18:21:19.853Z,11.10
2022-11-16T18:23:47.139Z,11.46
2022-11-16T18:26:16.064Z,11.59
2022-11-16T18:28:44.715Z,11.53
2022-11-16T18:31:15.152Z,11.43
2022-11-16T18:33:41.844Z,11.19
2022-11-16T18:36:08.844Z,11.22
2022-11-16T18:38:35.558Z,10.77
2022-11-16T18:41:06.057Z,10.59
2022-11-16T18:43:33.138Z,10.88
2022-11-16T18:46:00.257Z,10.91
2022-11-16T18:48:26.864Z,10.88
2022-11-16T18:50:56.898Z,10.95
2022-11-16T18:53:23.569Z,10.73
2022-11-16T18:55:54.914Z,10.53
2022-11-16T18:58:49.395Z,10.70
2022-11-16T19:01:12.806Z,10.64
2022-11-16T19:03:39.546Z,10.47
2022-11-16T19:06:06.958Z,10.76
2022-11-16T19:08:33.798Z,10.74
2022-11-16T19:11:08.153Z,10.62
2022-11-16T19:13:34.878Z,10.60
2022-11-16T19:16:01.724Z,10.30
2022-11-16T19:18:31.579Z,10.46
2022-11-16T19:21:12.041Z,10.59
2022-11-16T19:23:40.146Z,10.56
2022-11-16T19:26:06.950Z,10.62
2022-11-16T19:28:37.417Z,10.62
2022-11-16T19:31:16.528Z,10.69
2022-11-16T19:33:43.419Z,10.77
2022-11-16T19:36:14.221Z,10.53
2022-11-16T19:38:41.026Z,10.71
2022-11-16T19:41:07.913Z,10.46
2022-11-16T19:43:34.781Z,10.74
2022-11-16T19:46:05.882Z,10.67
2022-11-16T19:48:32.545Z,10.42
2022-11-16T19:51:12.525Z,10.29
2022-11-16T19:53:39.349Z,10.55
2022-11-16T19:56:06.660Z,10.58
2022-11-16T19:58:36.343Z,10.46
2022-11-16T20:01:04.354Z,10.60
2022-11-16T20:03:31.676Z,10.69
2022-11-16T20:06:25.349Z,10.53
2022-11-16T20:08:56.407Z,10.80
2022-11-16T20:11:24.208Z,10.71
2022-11-16T20:13:51.644Z,10.80
2022-11-16T20:16:19.278Z,10.73
2022-11-16T20:18:45.980Z,10.60
2022-11-16T20:21:23.635Z,10.61
2022-11-16T20:23:50.477Z,10.47
2022-11-16T20:26:17.531Z,10.35
2022-11-16T20:28:44.366Z,10.43
2022-11-16T20:31:16.138Z,10.48
2022-11-16T20:33:48.949Z,10.49
2022-11-16T20:36:15.733Z,10.51
2022-11-16T20:38:42.456Z,10.62
2022-11-16T20:41:14.009Z,10.64
2022-11-16T20:43:41.986Z,10.60
2022-11-16T20:46:10.458Z,10.88
2022-11-16T20:48:37.852Z,10.75
2022-11-16T20:51:05.668Z,10.92
2022-11-16T20:53:32.651Z,10.80
2022-11-16T20:56:00.156Z,10.73
2022-11-16T20:58:26.777Z,10.87
2022-11-16T21:00:53.523Z,10.85
2022-11-16T21:03:20.188Z,10.85
2022-11-16T21:05:50.762Z,10.88
2022-11-16T21:08:17.551Z,10.80
2022-11-16T21:10:44.602Z,10.66
2022-11-16T21:13:13.391Z,10.48
2022-11-16T21:15:40.022Z,10.73
2022-11-16T21:18:06.651Z,10.55
2022-11-16T21:20:33.302Z,10.82
2022-11-16T21:22:59.925Z,10.94
2022-11-16T21:25:26.577Z,10.85
2022-11-16T21:27:53.229Z,10.86
2022-11-16T21:30:19.943Z,10.75
2022-11-16T21:32:46.599Z,10.79
2022-11-16T21:35:13.258Z,11.01
2022-11-16T21:37:39.888Z,11.09
2022-11-16T21:40:07.026Z,10.91
2022-11-16T21:42:33.662Z,10.98
2022-11-16T21:45:00.281Z,10.87
2022-11-16T21:47:26.900Z,11.03
2022-11-16T21:50:29.682Z,11.17
2022-11-16T21:52:40.122Z,11.19
2022-11-16T21:55:07.031Z,11.17
2022-11-16T21:57:33.661Z,11.33
2022-11-16T22:00:00.291Z,11.22
2022-11-16T22:02:26.926Z,11.52
2022-11-16T22:04:53.559Z,11.25
2022-11-16T22:07:20.252Z,11.22
2022-11-16T22:09:46.908Z,11.19
2022-11-16T22:12:13.551Z,11.21
2022-11-16T22:14:40.173Z,11.41
2022-11-16T22:17:06.793Z,11.31
2022-11-16T22:19:33.419Z,11.03
2022-11-16T22:22:00.042Z,11.40
2022-11-16T22:24:26.729Z,11.08
2022-11-16T22:26:53.366Z,11.51
2022-11-16T22:29:19.997Z,11.22
2022-11-16T22:31:46.636Z,11.17
2022-11-16T22:34:13.271Z,11.25
2022-11-16T22:36:39.906Z,11.25
2022-11-16T22:39:06.533Z,11.31
2022-11-16T22:41:33.169Z,11.36
2022-11-16T22:43:59.782Z,11.15
2022-11-16T22:46:26.549Z,11.09
2022-11-16T22:48:53.190Z,11.16
2022-11-16T22:51:24.361Z,10.99
2022-11-16T22:53:55.066Z,11.09
2022-11-16T22:56:21.724Z,11.11
2022-11-16T22:58:48.380Z,11.09
2022-11-16T23:01:15.032Z,11.05
2022-11-16T23:03:41.909Z,11.00
2022-11-16T23:06:08.777Z,11.07
2022-11-16T23:08:35.891Z,10.94
2022-11-16T23:11:05.226Z,10.97
2022-11-16T23:13:32.073Z,10.91
2022-11-16T23:16:04.466Z,11.02
2022-11-16T23:18:31.168Z,10.93
2022-11-16T23:20:57.793Z,10.99
2022-11-16T23:23:24.450Z,11.15
2022-11-16T23:25:51.078Z,10.90
2022-11-16T23:28:18.998Z,11.06
2022-11-16T23:30:46.099Z,11.06
2022-11-16T23:33:12.819Z,10.92
2022-11-16T23:35:39.451Z,11.00
2022-11-16T23:38:07.254Z,10.71
2022-11-16T23:40:38.658Z,10.90
2022-11-16T23:43:06.270Z,11.07
2022-11-16T23:45:32.944Z,11.14
2022-11-16T23:47:59.570Z,11.10
2022-11-16T23:50:26.189Z,11.16
2022-11-16T23:52:52.851Z,11.03
2022-11-16T23:55:19.510Z,11.09
2022-11-16T23:57:46.155Z,10.91
